createdAt,value
2019-04-05T00:02:37.000Z,51.196
2019-04-05T00:12:37.000Z,51.204
2019-04-05T00:22:37.000Z,51.31
2019-04-05T00:32:37.000Z,51.246
2019-04-05T00:52:37.000Z,51.202
2019-04-05T01:02:39.000Z,51.201
2019-04-05T01:22:37.000Z,51.135
2019-04-05T01:32:39.000Z,51.145
2019-04-05T01:42:40.000Z,51.143
2019-04-05T01:52:37.000Z,51.11
2019-04-05T02:02:37.000Z,51.154
2019-04-05T02:12:37.000Z,51.096
2019-04-05T02:22:37.000Z,51.129
2019-04-05T02:32:37.000Z,51.14
2019-04-05T02:42:37.000Z,51.086
2019-04-05T02:52:37.000Z,51.034
2019-04-05T03:02:37.000Z,51.083
2019-04-05T03:12:38.000Z,51.179
2019-04-05T03:22:37.000Z,51.136
2019-04-05T03:32:37.000Z,51.145
2019-04-05T03:42:39.000Z,51.071
2019-04-05T03:52:37.000Z,51.112
2019-04-05T04:02:38.000Z,51.059
2019-04-05T04:12:37.000Z,51.058
2019-04-05T04:22:38.000Z,51.057
2019-04-05T04:32:39.000Z,51.015
2019-04-05T04:42:38.000Z,51.014
2019-04-05T04:52:38.000Z,51.035
2019-04-05T05:02:38.000Z,51.067
2019-04-05T05:22:38.000Z,51.003
2019-04-05T05:32:38.000Z,50.98
2019-04-05T05:42:38.000Z,50.981
2019-04-05T05:52:38.000Z,50.968
2019-04-05T06:02:38.000Z,50.98
2019-04-05T06:12:38.000Z,50.969
2019-04-05T06:22:38.000Z,50.949
2019-04-05T06:32:38.000Z,50.991
2019-04-05T06:42:38.000Z,50.896
2019-04-05T06:52:38.000Z,50.866
2019-04-05T07:02:38.000Z,50.802
2019-04-05T07:12:39.000Z,50.728
2019-04-05T07:22:38.000Z,50.75
2019-04-05T07:32:38.000Z,50.634
2019-04-05T07:42:38.000Z,50.656
2019-04-05T07:52:38.000Z,50.529
2019-04-05T08:02:38.000Z,50.573
2019-04-05T08:12:38.000Z,50.436
2019-04-05T08:22:38.000Z,50.438
2019-04-05T08:32:38.000Z,50.428
2019-04-05T08:42:38.000Z,50.376
2019-04-05T08:52:38.000Z,50.387
2019-04-05T09:02:42.000Z,50.419
2019-04-05T09:12:38.000Z,50.369
2019-04-05T09:22:38.000Z,50.306
2019-04-05T09:32:38.000Z,50.317
2019-04-05T09:42:39.000Z,50.318
2019-04-05T09:52:38.000Z,50.288
2019-04-05T10:02:38.000Z,50.33
2019-04-05T10:12:38.000Z,50.256
2019-04-05T10:22:38.000Z,50.247
2019-04-05T10:32:39.000Z,50.141
2019-04-05T10:42:38.000Z,50.153
2019-04-05T10:52:38.000Z,50.165
2019-04-05T11:02:38.000Z,50.165
2019-04-05T11:12:38.000Z,50.123
2019-04-05T11:22:38.000Z,50.135
2019-04-05T11:32:41.000Z,50.082
2019-04-05T11:42:38.000Z,50.073
2019-04-05T12:02:38.000Z,49.966
2019-04-05T12:12:41.000Z,49.936
2019-04-05T12:32:38.000Z,49.958
2019-04-05T12:42:38.000Z,50
2019-04-05T12:52:39.000Z,50.012
2019-04-05T13:02:39.000Z,49.968
2019-04-05T13:12:39.000Z,50.001
2019-04-05T13:22:39.000Z,49.917
2019-04-05T13:32:39.000Z,49.917
2019-04-05T13:42:39.000Z,49.951
2019-04-05T13:52:39.000Z,49.908
2019-04-05T14:02:39.000Z,49.855
2019-04-05T14:12:39.000Z,49.887
2019-04-05T14:22:39.000Z,49.792
2019-04-05T14:32:40.000Z,49.762
2019-04-05T14:42:39.000Z,49.803
2019-04-05T14:52:39.000Z,49.833
2019-04-05T15:02:39.000Z,49.844
2019-04-05T15:12:40.000Z,49.791
2019-04-05T15:22:39.000Z,49.762
2019-04-05T15:32:39.000Z,49.834
2019-04-05T15:42:39.000Z,49.865
2019-04-05T15:52:39.000Z,49.813
2019-04-05T16:02:41.000Z,49.833
2019-04-05T16:12:39.000Z,49.758
2019-04-05T16:22:39.000Z,49.75
2019-04-05T16:32:39.000Z,49.769
2019-04-05T16:42:39.000Z,49.781
2019-04-05T16:52:39.000Z,49.758
2019-04-05T17:02:40.000Z,49.8
2019-04-05T17:12:39.000Z,49.778
2019-04-05T17:22:39.000Z,49.756
2019-04-05T17:32:39.000Z,49.778
2019-04-05T17:42:39.000Z,49.767
2019-04-05T17:52:40.000Z,49.799
2019-04-05T18:02:39.000Z,49.766
2019-04-05T18:12:43.000Z,49.766
2019-04-05T18:22:39.000Z,49.724
2019-04-05T18:32:39.000Z,49.776
2019-04-05T18:42:39.000Z,49.714
2019-04-05T18:52:39.000Z,49.787
2019-04-05T19:02:39.000Z,49.841
2019-04-05T19:12:41.000Z,49.777
2019-04-05T19:22:40.000Z,49.745
2019-04-05T19:52:39.000Z,49.746
2019-04-05T20:02:40.000Z,49.808
2019-04-05T20:12:42.000Z,49.689
2019-04-05T20:32:39.000Z,49.713
2019-04-05T20:42:39.000Z,49.786
2019-04-05T21:02:39.000Z,49.659
2019-04-05T21:12:40.000Z,49.744
2019-04-05T21:22:40.000Z,49.744
2019-04-05T21:32:40.000Z,49.753
2019-04-05T21:42:40.000Z,49.71
2019-04-05T21:52:40.000Z,49.73
2019-04-05T22:02:42.000Z,49.762
2019-04-05T22:12:40.000Z,49.815
2019-04-05T22:22:40.000Z,49.739
2019-04-05T22:32:40.000Z,49.729
2019-04-05T22:42:40.000Z,49.696
2019-04-05T22:52:41.000Z,49.737
2019-04-05T23:02:41.000Z,49.706
2019-04-05T23:12:40.000Z,49.736
2019-04-05T23:22:41.000Z,49.737
2019-04-05T23:42:40.000Z,49.706
2019-04-05T23:52:40.000Z,49.693
